Time;durP1;ratioP1;P1;durP2;ratioP2;P2;SDS_P1;SDS_P2;PMS_P1;PMS_P2;Temp;Humidity;BMP_temperature;BMP_pressure;BME280_temperature;BME280_humidity;BME280_pressure;Samples;Min_cycle;Max_cycle;Signal;HPM_P1;HPM_P2
2021/06/28 00:02:01;;;;;;;14.37;11.07;;;17.60;99.90;;;;;;5073749;28;20312;-78
2021/06/28 00:04:28;;;;;;;18.17;11.47;;;17.50;99.90;;;;;;5087052;28;20250;-81
2021/06/28 00:06:55;;;;;;;17.93;11.60;;;17.50;99.90;;;;;;5079269;28;20626;-77
2021/06/28 00:09:22;;;;;;;14.40;11.63;;;17.50;99.90;;;;;;5074976;28;20282;-77
2021/06/28 00:11:49;;;;;;;19.20;12.40;;;17.50;99.90;;;;;;5080248;28;20275;-78
2021/06/28 00:14:16;;;;;;;18.50;12.23;;;17.60;99.90;;;;;;5083799;28;20632;-78
2021/06/28 00:16:43;;;;;;;19.40;12.87;;;17.50;99.90;;;;;;5083094;28;20192;-78
2021/06/28 00:19:11;;;;;;;17.97;13.23;;;17.50;99.90;;;;;;5083511;28;20278;-79
2021/06/28 00:21:39;;;;;;;17.70;12.07;;;17.60;99.90;;;;;;5084968;28;20279;-78
2021/06/28 00:24:07;;;;;;;21.57;13.37;;;17.60;99.90;;;;;;5083232;28;20216;-79
2021/06/28 00:26:34;;;;;;;16.53;12.37;;;17.50;99.90;;;;;;5083379;28;20191;-77
2021/06/28 00:29:01;;;;;;;14.93;11.77;;;17.60;99.90;;;;;;5080423;28;20278;-79
2021/06/28 00:31:28;;;;;;;15.07;10.93;;;17.60;99.90;;;;;;5084213;28;20294;-82
2021/06/28 00:33:56;;;;;;;16.57;11.90;;;17.70;99.90;;;;;;5084801;28;20317;-79
2021/06/28 00:36:24;;;;;;;19.90;14.00;;;17.70;99.90;;;;;;5080371;28;20223;-80
2021/06/28 00:38:51;;;;;;;17.27;12.47;;;17.80;99.90;;;;;;5082847;28;20290;-81
2021/06/28 00:41:18;;;;;;;19.87;12.73;;;17.80;99.90;;;;;;5084310;28;20199;-79
2021/06/28 00:43:45;;;;;;;20.53;12.63;;;17.60;99.90;;;;;;5083489;28;20294;-82
2021/06/28 00:46:12;;;;;;;19.90;13.90;;;17.50;99.90;;;;;;5083103;28;20294;-77
2021/06/28 00:48:39;;;;;;;17.60;12.63;;;17.60;99.90;;;;;;5084134;28;20290;-78
2021/06/28 00:51:06;;;;;;;17.97;13.53;;;17.60;99.90;;;;;;5082387;28;20282;-78
2021/06/28 00:53:35;;;;;;;17.43;12.90;;;17.60;99.90;;;;;;5082442;28;20195;-82
2021/06/28 00:56:10;;;;;;;23.57;14.17;;;17.60;99.90;;;;;;5079724;28;20196;-82
2021/06/28 00:58:38;;;;;;;24.10;14.67;;;17.60;99.90;;;;;;5082486;28;20199;-78
2021/06/28 01:01:06;;;;;;;18.00;13.73;;;17.50;99.90;;;;;;5082770;28;20206;-79
2021/06/28 01:03:33;;;;;;;21.97;14.50;;;17.60;99.90;;;;;;5083868;28;20250;-78
2021/06/28 01:06:01;;;;;;;20.20;14.20;;;17.50;99.90;;;;;;5079121;28;20249;-78
2021/06/28 01:08:28;;;;;;;24.03;15.80;;;17.60;99.90;;;;;;5075025;28;20286;-78
2021/06/28 01:10:56;;;;;;;24.47;14.43;;;17.60;99.90;;;;;;5073422;28;20202;-79
2021/06/28 01:13:25;;;;;;;19.50;13.33;;;17.70;99.90;;;;;;5073580;28;20291;-79
2021/06/28 01:15:52;;;;;;;23.17;14.47;;;17.70;99.90;;;;;;5073155;28;20210;-78
2021/06/28 01:18:19;;;;;;;20.10;14.13;;;17.70;99.90;;;;;;5072897;28;20286;-78
2021/06/28 01:20:47;;;;;;;21.13;15.10;;;17.70;99.90;;;;;;5073418;28;20227;-77
2021/06/28 01:23:20;;;;;;;25.43;16.33;;;17.60;99.90;;;;;;5073108;28;20291;-78
2021/06/28 01:25:49;;;;;;;25.93;16.90;;;17.70;99.90;;;;;;5073531;28;20223;-79
2021/06/28 01:28:17;;;;;;;28.33;16.57;;;17.80;99.90;;;;;;5072803;28;20649;-77
2021/06/28 01:30:44;;;;;;;25.77;16.43;;;17.90;99.90;;;;;;5073020;28;20223;-78
2021/06/28 01:33:11;;;;;;;25.70;15.37;;;17.90;99.90;;;;;;5072998;28;20639;-80
2021/06/28 01:35:39;;;;;;;23.67;16.13;;;17.90;99.90;;;;;;5072962;28;20271;-79
2021/06/28 01:38:06;;;;;;;23.10;15.83;;;17.90;99.90;;;;;;5072995;28;20605;-78
2021/06/28 01:40:35;;;;;;;31.20;17.07;;;18.00;99.90;;;;;;5073254;28;20295;-78
2021/06/28 01:43:02;;;;;;;25.17;16.37;;;18.00;99.90;;;;;;5073314;28;20282;-81
2021/06/28 01:45:29;;;;;;;23.00;14.90;;;18.00;99.90;;;;;;5072887;28;20235;-78
2021/06/28 01:47:58;;;;;;;26.53;16.03;;;18.00;99.90;;;;;;5073050;28;20238;-78
2021/06/28 01:50:26;;;;;;;33.20;18.17;;;18.10;99.90;;;;;;5073081;28;20291;-77
2021/06/28 01:52:54;;;;;;;34.90;17.47;;;18.10;99.90;;;;;;5072901;28;20269;-79
2021/06/28 01:55:21;;;;;;;27.37;16.83;;;18.20;99.90;;;;;;5072656;28;20642;-79
2021/06/28 01:57:52;;;;;;;21.17;15.07;;;17.90;99.90;;;;;;5073086;28;20183;-81
2021/06/28 02:00:21;;;;;;;24.13;15.50;;;17.90;99.90;;;;;;5073055;28;20253;-81
2021/06/28 02:03:04;;;;;;;25.17;15.50;;;17.80;99.90;;;;;;5077369;28;20271;-82
2021/06/28 02:05:33;;;;;;;24.27;15.30;;;17.90;99.90;;;;;;5097033;28;20321;-78
2021/06/28 02:08:00;;;;;;;28.07;14.03;;;18.00;99.90;;;;;;5097534;28;20203;-80
2021/06/28 02:10:27;;;;;;;23.27;15.23;;;17.90;99.90;;;;;;5096879;28;20226;-77
2021/06/28 02:12:55;;;;;;;27.27;16.90;;;17.90;99.90;;;;;;5097224;28;20195;-78
2021/06/28 02:15:24;;;;;;;28.70;17.90;;;18.00;99.90;;;;;;5096824;28;20237;-81
2021/06/28 02:17:52;;;;;;;26.57;16.87;;;18.00;99.90;;;;;;5097115;28;20291;-79
2021/06/28 02:20:20;;;;;;;25.50;15.43;;;17.90;99.90;;;;;;5096673;28;20290;-78
2021/06/28 02:22:48;;;;;;;24.93;15.87;;;17.60;99.90;;;;;;5096873;28;20634;-79
2021/06/28 02:25:16;;;;;;;25.03;14.50;;;17.40;99.90;;;;;;5096896;28;20685;-80
2021/06/28 02:27:43;;;;;;;23.73;15.37;;;17.40;99.90;;;;;;5096992;28;20226;-82
2021/06/28 02:30:15;;;;;;;24.47;15.97;;;17.40;99.90;;;;;;5096651;28;20677;-78
2021/06/28 02:32:43;;;;;;;25.73;16.27;;;17.20;99.90;;;;;;5096883;28;20236;-78
2021/06/28 02:35:12;;;;;;;28.43;17.60;;;17.30;99.90;;;;;;5096518;28;20301;-85
2021/06/28 02:37:41;;;;;;;27.53;18.50;;;17.30;99.90;;;;;;5096373;28;20285;-81
2021/06/28 02:40:10;;;;;;;34.93;18.43;;;17.30;99.90;;;;;;5094988;28;20672;-77
2021/06/28 02:42:37;;;;;;;54.70;20.03;;;17.30;99.90;;;;;;5096412;28;20297;-78
2021/06/28 02:45:06;;;;;;;31.60;18.33;;;17.20;99.90;;;;;;5095855;28;20237;-77
2021/06/28 02:47:34;;;;;;;52.27;19.53;;;17.00;99.90;;;;;;5096039;28;20628;-78
2021/06/28 02:50:01;;;;;;;32.00;18.87;;;17.00;99.90;;;;;;5096221;28;20286;-78
2021/06/28 02:52:27;;;;;;;40.83;19.43;;;17.10;99.90;;;;;;5096092;28;20225;-79
2021/06/28 02:54:54;;;;;;;35.90;20.27;;;17.20;99.90;;;;;;5096228;28;20220;-77
2021/06/28 02:57:21;;;;;;;30.40;18.87;;;17.20;99.90;;;;;;5096177;28;20278;-79
2021/06/28 02:59:48;;;;;;;33.13;19.33;;;17.40;99.90;;;;;;5096399;28;20256;-84
2021/06/28 03:05:39;;;;;;;30.57;18.40;;;17.30;99.90;;;;;;5070290;28;20219;-79
2021/06/28 03:08:07;;;;;;;29.67;18.07;;;17.30;99.90;;;;;;5094777;28;20215;-78
2021/06/28 03:10:35;;;;;;;29.90;17.67;;;17.20;99.90;;;;;;5089490;28;20249;-82
2021/06/28 03:13:02;;;;;;;35.00;19.07;;;17.30;99.90;;;;;;5075996;28;20199;-78
2021/06/28 03:15:28;;;;;;;33.33;19.17;;;17.50;99.90;;;;;;5075269;28;20291;-80
2021/06/28 03:17:55;;;;;;;28.83;18.03;;;17.50;99.90;;;;;;5080725;28;20290;-78
2021/06/28 03:20:22;;;;;;;29.27;18.60;;;17.60;99.90;;;;;;5084216;28;20199;-79
2021/06/28 03:22:50;;;;;;;29.27;18.00;;;17.70;99.90;;;;;;5095355;28;20277;-78
2021/06/28 03:25:18;;;;;;;29.53;17.83;;;17.60;99.90;;;;;;5095910;28;20587;-78
2021/06/28 03:27:45;;;;;;;33.77;19.20;;;17.60;99.90;;;;;;5095628;28;20191;-82
2021/06/28 03:30:15;;;;;;;28.13;17.60;;;17.60;99.90;;;;;;5095403;28;20738;-77
2021/06/28 03:32:43;;;;;;;28.30;16.60;;;17.60;99.90;;;;;;5095004;28;20657;-75
2021/06/28 03:35:11;;;;;;;31.37;17.47;;;17.60;99.90;;;;;;5095355;28;20230;-80
2021/06/28 03:37:39;;;;;;;25.30;16.03;;;17.50;99.90;;;;;;5095491;28;20195;-78
2021/06/28 03:40:10;;;;;;;23.60;15.33;;;17.50;99.90;;;;;;5095266;28;20226;-80
2021/06/28 03:42:37;;;;;;;27.30;15.90;;;17.50;99.90;;;;;;5095372;28;20289;-77
2021/06/28 03:45:05;;;;;;;24.17;16.50;;;17.60;99.90;;;;;;5095227;28;20222;-77
2021/06/28 03:47:32;;;;;;;30.53;18.67;;;17.60;99.90;;;;;;5095051;28;20656;-77
2021/06/28 03:49:59;;;;;;;26.87;17.43;;;17.60;99.90;;;;;;5095154;28;20274;-77
2021/06/28 03:52:26;;;;;;;30.97;18.33;;;17.70;99.90;;;;;;5095277;28;20195;-77
2021/06/28 03:54:53;;;;;;;33.07;19.43;;;17.70;99.90;;;;;;5095152;28;20656;-81
2021/06/28 03:57:21;;;;;;;29.57;18.23;;;17.60;99.90;;;;;;5094694;28;20290;-82
2021/06/28 03:59:48;;;;;;;30.53;19.50;;;17.80;99.90;;;;;;5105896;28;20195;-82
2021/06/28 04:02:15;;;;;;;31.07;20.20;;;17.90;99.90;;;;;;5115270;28;20713;-78
2021/06/28 04:04:47;;;;;;;33.83;20.67;;;18.10;99.90;;;;;;5115106;28;20783;-81
2021/06/28 04:07:15;;;;;;;28.93;19.43;;;18.20;99.90;;;;;;5096794;28;20281;-81
2021/06/28 04:09:42;;;;;;;30.07;19.30;;;18.20;99.90;;;;;;5094937;28;20289;-82
2021/06/28 04:12:10;;;;;;;25.70;17.53;;;18.40;99.90;;;;;;5094788;28;20598;-80
2021/06/28 04:14:40;;;;;;;23.10;15.87;;;18.10;99.90;;;;;;5095176;28;20207;-78
2021/06/28 04:17:07;;;;;;;23.77;16.57;;;17.90;99.90;;;;;;5095087;28;20314;-81
2021/06/28 04:19:35;;;;;;;23.83;16.90;;;17.80;99.90;;;;;;5094770;28;20231;-77
2021/06/28 04:22:02;;;;;;;25.63;17.60;;;17.70;99.90;;;;;;5094749;28;20687;-78
2021/06/28 04:24:28;;;;;;;26.60;17.57;;;17.90;99.90;;;;;;5094615;28;20383;-78
2021/06/28 04:26:55;;;;;;;27.63;18.17;;;18.10;99.90;;;;;;5093372;28;20206;-77
2021/06/28 04:29:22;;;;;;;30.17;19.97;;;18.20;99.90;;;;;;5094085;28;20227;-79
2021/06/28 04:31:52;;;;;;;32.07;20.20;;;18.30;99.90;;;;;;5094279;28;20718;-78
2021/06/28 04:34:19;;;;;;;28.70;19.60;;;18.50;99.90;;;;;;5094278;28;20572;-83
2021/06/28 04:36:46;;;;;;;29.00;18.87;;;18.60;99.90;;;;;;5094131;28;20286;-81
2021/06/28 04:39:13;;;;;;;27.50;19.47;;;18.80;99.90;;;;;;5094170;28;20205;-82
2021/06/28 04:41:40;;;;;;;27.83;18.57;;;19.00;99.90;;;;;;5093667;28;20667;-78
2021/06/28 04:44:07;;;;;;;23.37;17.23;;;19.10;99.90;;;;;;5093894;28;20226;-78
2021/06/28 04:46:34;;;;;;;25.00;16.93;;;18.90;99.90;;;;;;5094065;28;20222;-78
2021/06/28 04:49:02;;;;;;;25.33;17.03;;;19.10;99.90;;;;;;5094231;28;20230;-79
2021/06/28 04:51:31;;;;;;;20.67;15.83;;;19.40;99.90;;;;;;5094057;28;20199;-82
2021/06/28 04:53:58;;;;;;;20.97;15.97;;;19.70;99.90;;;;;;5093776;28;20199;-78
2021/06/28 04:56:25;;;;;;;19.87;15.10;;;19.90;99.90;;;;;;5093376;28;20684;-78
2021/06/28 04:58:52;;;;;;;22.17;16.03;;;20.00;99.90;;;;;;5096483;28;20199;-81
2021/06/28 05:01:18;;;;;;;23.07;15.07;;;19.90;99.90;;;;;;5114461;28;20240;-78
2021/06/28 05:03:45;;;;;;;19.37;15.50;;;20.00;99.90;;;;;;5114062;28;20286;-79
2021/06/28 05:06:13;;;;;;;17.97;14.30;;;20.10;99.90;;;;;;5113919;28;20316;-78
2021/06/28 05:08:40;;;;;;;20.43;15.33;;;20.30;99.90;;;;;;5100067;28;20734;-78
2021/06/28 05:11:07;;;;;;;17.30;14.40;;;20.50;99.90;;;;;;5107982;28;20217;-78
2021/06/28 05:13:34;;;;;;;18.37;14.13;;;20.80;99.90;;;;;;5113429;28;20216;-79
2021/06/28 05:16:01;;;;;;;16.87;13.83;;;20.80;99.90;;;;;;5096942;28;20202;-85
2021/06/28 05:18:28;;;;;;;18.77;13.57;;;21.10;99.90;;;;;;5113351;28;20633;-81
2021/06/28 05:20:55;;;;;;;17.93;14.73;;;21.20;99.90;;;;;;5111742;28;20285;-81
2021/06/28 05:23:23;;;;;;;18.10;14.03;;;21.00;99.90;;;;;;5093530;28;20282;-78
2021/06/28 05:25:50;;;;;;;16.47;13.40;;;20.50;99.90;;;;;;5099901;28;20639;-78
2021/06/28 05:28:17;;;;;;;18.80;14.27;;;20.00;99.90;;;;;;5098236;28;20197;-78
2021/06/28 05:30:44;;;;;;;18.60;15.13;;;19.80;99.90;;;;;;5105898;28;20621;-78
2021/06/28 05:33:11;;;;;;;21.30;15.40;;;19.90;99.90;;;;;;5092832;28;20203;-81
2021/06/28 05:35:38;;;;;;;18.97;14.53;;;19.80;99.90;;;;;;5110865;28;20236;-78
2021/06/28 05:38:05;;;;;;;19.47;14.77;;;19.70;99.90;;;;;;5108719;28;20353;-79
2021/06/28 05:40:33;;;;;;;20.93;15.53;;;19.90;99.90;;;;;;5092458;28;20648;-78
2021/06/28 05:43:00;;;;;;;16.33;14.63;;;20.00;99.90;;;;;;5093143;28;20290;-79
2021/06/28 05:45:27;;;;;;;22.43;15.63;;;20.30;99.90;;;;;;5093322;28;20755;-80
2021/06/28 05:47:54;;;;;;;20.20;15.10;;;20.50;99.90;;;;;;5093230;28;20230;-79
2021/06/28 05:50:22;;;;;;;22.17;14.57;;;20.40;99.90;;;;;;5106561;28;20285;-78
2021/06/28 05:52:49;;;;;;;16.37;13.73;;;20.70;99.90;;;;;;5100589;28;20633;-84
2021/06/28 05:55:16;;;;;;;19.73;14.30;;;20.90;99.90;;;;;;5112912;28;20230;-78
2021/06/28 05:57:44;;;;;;;16.20;14.43;;;21.10;99.90;;;;;;5096071;28;20234;-79
2021/06/28 06:00:14;;;;;;;17.00;14.25;;;21.40;99.90;;;;;;5113395;28;20204;-79
2021/06/28 06:02:41;;;;;;;18.83;13.57;;;21.80;99.90;;;;;;5106416;28;20218;-82
2021/06/28 06:05:10;;;;;;;19.67;14.38;;;22.10;99.90;;;;;;5113153;28;20790;-83
2021/06/28 06:07:37;;;;;;;15.77;12.43;;;22.30;99.90;;;;;;5113538;28;20284;-80
2021/06/28 06:10:05;;;;;;;15.98;12.30;;;22.60;99.90;;;;;;5110870;28;20562;-80
2021/06/28 06:12:32;;;;;;;14.45;11.82;;;22.90;99.90;;;;;;5100299;28;20656;-79
2021/06/28 06:15:00;;;;;;;15.50;11.90;;;23.30;99.90;;;;;;5111194;28;20197;-84
2021/06/28 06:17:27;;;;;;;12.88;11.07;;;24.00;99.90;;;;;;5094376;28;20294;-81
2021/06/28 06:19:54;;;;;;;18.73;11.00;;;24.70;99.90;;;;;;5093437;28;20223;-82
2021/06/28 06:22:21;;;;;;;13.93;10.82;;;26.00;99.90;;;;;;5091177;28;20213;-79
2021/06/28 06:24:48;;;;;;;14.27;10.65;;;26.30;99.90;;;;;;5082117;28;20268;-82
2021/06/28 06:27:14;;;;;;;10.95;9.82;;;27.30;99.90;;;;;;5091918;28;20211;-84
2021/06/28 06:29:44;;;;;;;12.50;10.43;;;28.30;99.90;;;;;;5093121;28;20237;-77
2021/06/28 06:32:13;;;;;;;13.93;10.20;;;28.70;99.90;;;;;;5092399;28;20302;-75
2021/06/28 06:34:40;;;;;;;15.80;10.50;;;29.00;99.90;;;;;;5112484;28;20595;-75
2021/06/28 06:37:07;;;;;;;12.02;9.88;;;28.80;99.90;;;;;;5116472;28;20230;-80
2021/06/28 06:39:35;;;;;;;13.35;10.77;;;29.20;99.90;;;;;;5115884;28;20233;-80
2021/06/28 06:42:02;;;;;;;11.20;9.90;;;30.70;99.90;;;;;;5093335;28;20199;-80
2021/06/28 06:44:29;;;;;;;10.23;9.25;;;32.20;99.90;;;;;;5092746;28;20244;-80
2021/06/28 06:46:56;;;;;;;12.82;9.77;;;32.90;99.90;;;;;;5092450;28;20217;-84
2021/06/28 06:49:24;;;;;;;10.55;9.15;;;32.60;99.90;;;;;;5095275;28;20263;-81
2021/06/28 06:51:52;;;;;;;12.35;9.82;;;32.20;99.90;;;;;;5096707;28;20215;-80
2021/06/28 06:54:20;;;;;;;9.52;8.55;;;31.90;99.90;;;;;;5096402;28;20718;-82
2021/06/28 06:56:47;;;;;;;10.52;9.02;;;32.10;99.90;;;;;;5103475;28;20632;-80
2021/06/28 06:59:14;;;;;;;12.82;9.55;;;31.30;99.90;;;;;;5106899;28;20292;-81
2021/06/28 07:01:42;;;;;;;11.68;9.48;;;30.80;99.90;;;;;;5099053;28;20277;-79
2021/06/28 07:04:09;;;;;;;14.10;9.68;;;30.20;99.90;;;;;;5093954;28;20278;-80
2021/06/28 07:06:37;;;;;;;13.70;10.13;;;29.70;99.90;;;;;;5086231;28;20218;-80
2021/06/28 07:09:04;;;;;;;14.10;9.80;;;29.30;99.90;;;;;;5097559;28;20234;-83
2021/06/28 07:11:31;;;;;;;18.58;10.18;;;29.10;99.90;;;;;;5086615;28;20580;-85
2021/06/28 07:13:59;;;;;;;15.13;10.35;;;28.90;99.90;;;;;;5095581;28;20199;-81
2021/06/28 07:16:30;;;;;;;16.42;10.18;;;28.70;99.90;;;;;;5096582;28;20205;-80
2021/06/28 07:18:57;;;;;;;11.82;10.52;;;28.50;99.90;;;;;;5096073;28;20556;-82
2021/06/28 07:21:24;;;;;;;12.63;10.80;;;28.30;99.90;;;;;;5094600;28;20231;-80
2021/06/28 07:23:53;;;;;;;12.43;10.52;;;27.90;99.90;;;;;;5100119;28;20254;-80
2021/06/28 07:26:21;;;;;;;17.40;12.23;;;27.50;99.90;;;;;;5088853;28;20226;-81
2021/06/28 07:28:48;;;;;;;14.80;11.30;;;27.20;99.90;;;;;;5115465;28;20202;-80
2021/06/28 07:31:15;;;;;;;15.00;11.35;;;27.10;99.90;;;;;;5096238;28;20789;-80
2021/06/28 07:33:42;;;;;;;13.60;11.43;;;26.10;99.90;;;;;;5093250;28;20554;-83
2021/06/28 07:36:10;;;;;;;14.93;10.70;;;25.50;99.90;;;;;;5095410;28;20222;-82
2021/06/28 07:38:38;;;;;;;13.85;10.65;;;25.10;99.90;;;;;;5093400;28;20606;-80
2021/06/28 07:41:07;;;;;;;14.07;11.13;;;25.20;99.90;;;;;;5094607;28;20248;-79
2021/06/28 07:43:35;;;;;;;15.50;12.23;;;25.40;99.90;;;;;;5108937;28;20213;-79
2021/06/28 07:46:03;;;;;;;19.05;11.32;;;24.70;99.90;;;;;;5091555;28;20237;-79
2021/06/28 07:48:30;;;;;;;18.35;11.85;;;24.90;99.90;;;;;;5091339;28;20287;-81
2021/06/28 07:50:57;;;;;;;14.38;11.73;;;24.80;99.90;;;;;;5093400;28;20633;-85
2021/06/28 07:53:24;;;;;;;17.40;12.52;;;24.70;99.90;;;;;;5100031;28;20284;-82
2021/06/28 07:55:51;;;;;;;18.77;13.50;;;24.70;99.90;;;;;;5087458;28;20285;-78
2021/06/28 07:58:19;;;;;;;15.45;12.38;;;24.80;99.90;;;;;;5093795;28;20315;-79
2021/06/28 08:00:47;;;;;;;18.55;12.88;;;24.70;99.90;;;;;;5095497;28;20293;-79
2021/06/28 08:03:14;;;;;;;16.17;12.30;;;24.40;99.90;;;;;;5089541;28;20202;-84
2021/06/28 08:05:41;;;;;;;13.75;12.32;;;24.50;99.90;;;;;;5094266;28;20199;-79
2021/06/28 08:08:08;;;;;;;18.05;12.85;;;24.50;99.90;;;;;;5094673;28;20199;-81
2021/06/28 08:10:35;;;;;;;19.73;12.93;;;24.40;99.90;;;;;;5103248;28;20285;-79
2021/06/28 08:13:03;;;;;;;16.17;12.40;;;24.50;99.90;;;;;;5093858;28;20195;-79
2021/06/28 08:15:31;;;;;;;16.40;13.13;;;24.50;99.90;;;;;;5093916;28;20285;-79
2021/06/28 08:17:58;;;;;;;14.88;11.90;;;24.40;99.90;;;;;;5097555;28;20203;-80
2021/06/28 08:20:25;;;;;;;14.90;12.13;;;24.30;99.90;;;;;;5095347;28;20203;-81
2021/06/28 08:22:52;;;;;;;18.17;12.30;;;24.40;99.90;;;;;;5093760;28;20604;-79
2021/06/28 08:25:23;;;;;;;19.42;11.95;;;24.30;99.90;;;;;;5093842;28;20282;-80
2021/06/28 08:27:51;;;;;;;14.55;12.32;;;24.10;99.90;;;;;;5080315;28;20593;-82
2021/06/28 08:30:19;;;;;;;16.58;12.40;;;24.10;99.90;;;;;;5090394;28;20221;-80
2021/06/28 08:32:47;;;;;;;20.85;12.75;;;24.00;99.90;;;;;;5093407;28;20501;-80
2021/06/28 08:35:15;;;;;;;15.65;13.32;;;24.00;99.90;;;;;;5093221;28;20333;-86
2021/06/28 08:37:42;;;;;;;20.02;12.63;;;24.10;99.90;;;;;;5093616;28;20211;-80
2021/06/28 08:40:12;;;;;;;21.88;13.27;;;23.90;99.90;;;;;;5093344;28;20213;-80
2021/06/28 08:42:40;;;;;;;17.33;12.80;;;23.90;99.90;;;;;;5077025;28;20195;-80
2021/06/28 08:45:08;;;;;;;16.00;12.80;;;23.90;99.90;;;;;;5093353;28;20230;-80
2021/06/28 08:47:35;;;;;;;19.60;13.45;;;23.90;99.90;;;;;;5081857;28;20241;-81
2021/06/28 08:50:05;;;;;;;19.15;13.10;;;24.00;99.90;;;;;;5088300;28;20619;-81
2021/06/28 08:52:36;;;;;;;18.50;12.68;;;24.10;99.90;;;;;;5087221;28;20669;-84
2021/06/28 08:55:03;;;;;;;17.40;13.32;;;24.40;99.90;;;;;;5091429;28;20188;-80
2021/06/28 08:57:31;;;;;;;20.92;13.15;;;24.80;99.90;;;;;;5092803;28;20606;-79
2021/06/28 08:59:58;;;;;;;18.42;12.82;;;25.20;99.90;;;;;;5093297;28;20294;-80
2021/06/28 09:02:25;;;;;;;14.00;11.98;;;25.60;99.90;;;;;;5091995;28;20252;-81
2021/06/28 09:04:59;;;;;;;15.90;11.90;;;25.90;99.90;;;;;;5092895;28;20607;-83
2021/06/28 09:07:27;;;;;;;16.27;12.90;;;26.00;99.90;;;;;;5092604;28;20309;-80
2021/06/28 09:09:54;;;;;;;15.45;12.88;;;26.20;99.90;;;;;;5091650;28;20191;-81
2021/06/28 09:12:22;;;;;;;17.20;13.05;;;26.20;99.90;;;;;;5092136;28;20244;-79
2021/06/28 09:14:53;;;;;;;14.80;11.48;;;26.10;99.90;;;;;;5093139;28;20543;-80
2021/06/28 09:17:31;;;;;;;17.40;12.10;;;25.80;99.90;;;;;;5092771;28;20587;-80
2021/06/28 09:20:19;;;;;;;9.40;8.38;;;25.90;99.90;;;;;;5085552;28;20651;-79
2021/06/28 09:22:48;;;;;;;8.15;6.97;;;25.70;99.90;;;;;;5091689;28;20214;-82
2021/06/28 09:25:31;;;;;;;8.38;6.80;;;25.60;99.90;;;;;;5090698;28;20329;-81
2021/06/28 09:27:58;;;;;;;10.32;7.93;;;25.50;99.90;;;;;;5092789;28;20645;-79
2021/06/28 09:30:27;;;;;;;9.45;7.95;;;25.40;99.90;;;;;;5092785;28;20233;-82
2021/06/28 09:32:56;;;;;;;10.13;8.48;;;25.30;99.90;;;;;;5095563;28;20191;-78
2021/06/28 09:35:31;;;;;;;12.40;8.57;;;25.20;99.90;;;;;;5092709;28;20202;-81
2021/06/28 09:38:03;;;;;;;9.18;8.02;;;25.10;99.90;;;;;;5092634;28;20260;-79
2021/06/28 09:40:30;;;;;;;10.10;7.22;;;25.10;99.90;;;;;;5092393;28;20294;-79
2021/06/28 09:42:57;;;;;;;8.05;6.80;;;24.90;99.90;;;;;;5093095;28;20230;-80
2021/06/28 09:45:24;;;;;;;8.13;6.90;;;24.70;99.90;;;;;;5092871;28;20222;-80
2021/06/28 09:47:52;;;;;;;8.38;6.75;;;24.70;99.90;;;;;;5092711;28;20309;-80
2021/06/28 09:50:20;;;;;;;7.38;6.50;;;24.60;99.90;;;;;;5092849;28;20202;-79
2021/06/28 09:52:51;;;;;;;8.90;7.60;;;24.60;99.90;;;;;;5092610;28;20198;-82
2021/06/28 09:55:25;;;;;;;9.70;7.93;;;24.70;99.90;;;;;;5092578;28;20195;-79
2021/06/28 09:58:12;;;;;;;10.27;7.57;;;25.00;99.90;;;;;;5092179;28;20245;-78
2021/06/28 10:00:41;;;;;;;7.72;6.78;;;25.10;99.90;;;;;;5090820;28;20293;-78
2021/06/28 10:03:25;;;;;;;13.23;7.45;;;25.10;99.90;;;;;;5092467;28;20190;-77
2021/06/28 10:06:08;;;;;;;10.50;6.25;;;25.20;99.90;;;;;;5090767;28;20234;-83
2021/06/28 10:08:37;;;;;;;7.65;6.03;;;25.40;99.90;;;;;;5090885;28;20198;-78
2021/06/28 10:11:17;;;;;;;8.23;6.22;;;25.60;99.90;;;;;;5091682;28;20625;-78
2021/06/28 10:13:47;;;;;;;8.68;6.65;;;25.90;99.90;;;;;;5089402;28;20269;-78
2021/06/28 10:16:14;;;;;;;7.05;6.35;;;26.00;99.90;;;;;;5091751;28;20289;-78
2021/06/28 10:18:42;;;;;;;7.05;6.30;;;26.30;99.90;;;;;;5091715;28;20234;-78
2021/06/28 10:21:09;;;;;;;6.30;5.32;;;26.70;99.90;;;;;;5091695;28;20244;-82
2021/06/28 10:23:37;;;;;;;7.82;5.50;;;27.20;99.90;;;;;;5090658;28;20210;-77
2021/06/28 10:26:04;;;;;;;8.50;5.70;;;26.90;99.90;;;;;;5094749;28;20229;-78
2021/06/28 10:28:34;;;;;;;9.68;6.25;;;26.90;99.90;;;;;;5092179;28;20276;-79
2021/06/28 10:31:01;;;;;;;7.50;4.85;;;27.40;99.90;;;;;;5095006;28;20241;-81
2021/06/28 10:33:28;;;;;;;9.80;6.03;;;28.40;99.90;;;;;;5095436;28;20250;-78
2021/06/28 10:36:02;;;;;;;8.25;5.40;;;29.00;99.90;;;;;;5095741;28;20273;-79
2021/06/28 10:38:44;;;;;;;7.32;5.75;;;29.40;99.90;;;;;;5093523;28;20205;-78
2021/06/28 10:41:11;;;;;;;5.63;5.13;;;29.40;99.90;;;;;;5093590;28;20187;-79
2021/06/28 10:43:40;;;;;;;6.30;5.43;;;29.50;99.90;;;;;;5095378;28;20286;-78
2021/06/28 10:46:09;;;;;;;8.50;5.88;;;29.20;99.90;;;;;;5092981;28;20199;-80
2021/06/28 10:48:47;;;;;;;12.57;5.40;;;28.70;99.90;;;;;;5095418;28;20750;-78
2021/06/28 10:51:15;;;;;;;8.40;6.07;;;28.20;99.90;;;;;;5093796;28;20214;-78
2021/06/28 10:54:01;;;;;;;11.70;6.55;;;27.80;99.90;;;;;;5095236;28;20263;-78
2021/06/28 10:57:00;;;;;;;10.80;6.60;;;27.60;99.90;;;;;;5093494;28;20547;-81
2021/06/28 10:59:42;;;;;;;9.98;6.43;;;27.40;99.90;;;;;;5092965;28;20633;-78
2021/06/28 11:02:11;;;;;;;9.48;5.57;;;27.00;99.90;;;;;;5093302;28;20198;-78
2021/06/28 11:04:41;;;;;;;7.22;5.18;;;26.70;99.90;;;;;;5095450;28;20605;-78
2021/06/28 11:07:17;;;;;;;7.32;5.30;;;26.60;99.90;;;;;;5091913;28;20894;-79
2021/06/28 11:09:47;;;;;;;9.23;5.22;;;26.50;99.90;;;;;;5095107;28;20278;-80
2021/06/28 11:12:34;;;;;;;9.15;5.53;;;26.40;99.90;;;;;;5095219;28;20241;-80
2021/06/28 11:15:24;;;;;;;7.93;5.85;;;26.30;99.90;;;;;;5096111;28;20215;-78
2021/06/28 11:17:52;;;;;;;9.88;6.18;;;26.30;99.90;;;;;;5094490;28;20268;-77
2021/06/28 11:20:31;;;;;;;12.40;5.63;;;26.70;99.90;;;;;;5094993;28;20241;-78
2021/06/28 11:23:10;;;;;;;7.78;5.38;;;26.90;99.90;;;;;;5094076;28;20286;-79
2021/06/28 11:25:49;;;;;;;10.77;6.20;;;27.40;99.90;;;;;;5093854;28;20191;-78
2021/06/28 11:28:22;;;;;;;8.10;6.10;;;27.60;99.90;;;;;;5093545;28;20307;-78
2021/06/28 11:31:00;;;;;;;10.98;5.70;;;27.80;99.90;;;;;;5092364;28;20653;-82
2021/06/28 11:33:45;;;;;;;7.80;5.38;;;28.20;99.90;;;;;;5094624;28;20253;-78
2021/06/28 11:36:32;;;;;;;9.07;5.72;;;28.50;99.90;;;;;;5095055;28;20214;-80
2021/06/28 11:39:01;;;;;;;8.45;5.88;;;28.50;99.90;;;;;;5094919;28;20203;-82
2021/06/28 11:41:29;;;;;;;9.38;5.68;;;28.50;99.90;;;;;;5094370;28;20202;-80
2021/06/28 11:43:57;;;;;;;8.02;5.68;;;28.40;99.90;;;;;;5082717;28;20203;-79
2021/06/28 11:46:47;;;;;;;7.97;5.85;;;28.50;99.90;;;;;;5082267;28;20195;-78
2021/06/28 11:49:23;;;;;;;7.93;5.22;;;28.40;99.90;;;;;;5093943;28;20281;-80
2021/06/28 11:51:51;;;;;;;7.90;6.20;;;28.30;99.90;;;;;;5094144;28;20217;-80
2021/06/28 11:54:20;;;;;;;7.07;5.63;;;28.30;99.90;;;;;;5093778;28;20225;-78
2021/06/28 11:56:49;;;;;;;6.75;5.78;;;28.00;99.90;;;;;;5093815;28;20276;-78
2021/06/28 11:59:17;;;;;;;9.20;6.60;;;27.60;99.90;;;;;;5094352;28;20206;-78
2021/06/28 12:01:50;;;;;;;12.77;6.55;;;27.40;99.90;;;;;;5094072;28;20205;-82
2021/06/28 12:04:18;;;;;;;6.63;6.00;;;27.30;99.90;;;;;;5089874;28;20201;-81
2021/06/28 12:06:46;;;;;;;8.13;6.43;;;27.20;99.90;;;;;;5093430;28;20285;-79
2021/06/28 12:09:15;;;;;;;7.47;6.50;;;27.10;99.90;;;;;;5093580;28;20241;-78
2021/06/28 12:11:51;;;;;;;12.32;6.88;;;27.00;99.90;;;;;;5092795;28;20649;-79
2021/06/28 12:14:29;;;;;;;7.22;6.55;;;26.70;99.90;;;;;;5084778;28;20222;-77
2021/06/28 12:16:58;;;;;;;10.10;6.18;;;26.60;99.90;;;;;;5090058;28;20277;-78
2021/06/28 12:19:25;;;;;;;7.00;6.40;;;26.30;99.90;;;;;;5093163;28;20282;-77
2021/06/28 12:21:53;;;;;;;6.95;6.25;;;26.20;99.90;;;;;;5093115;28;20281;-79
2021/06/28 12:24:21;;;;;;;7.43;6.43;;;25.90;99.90;;;;;;5093281;28;20199;-77
2021/06/28 12:27:03;;;;;;;6.85;5.75;;;25.80;99.90;;;;;;5085778;28;20214;-78
2021/06/28 12:29:35;;;;;;;7.55;5.05;;;25.70;99.90;;;;;;5088066;28;20543;-81
2021/06/28 12:32:07;;;;;;;5.22;4.72;;;25.80;99.90;;;;;;5082380;28;20303;-81
2021/06/28 12:34:34;;;;;;;7.95;4.80;;;26.00;99.90;;;;;;5083713;28;20199;-81
2021/06/28 12:37:02;;;;;;;5.13;4.63;;;26.20;99.90;;;;;;5093307;28;20625;-78
2021/06/28 12:39:30;;;;;;;6.57;4.45;;;26.70;99.90;;;;;;5087756;28;20545;-78
2021/06/28 12:42:11;;;;;;;5.75;3.83;;;27.10;99.90;;;;;;5091863;28;20207;-78
2021/06/28 12:44:39;;;;;;;4.07;3.20;;;27.60;99.90;;;;;;5093080;28;20226;-78
2021/06/28 12:47:09;;;;;;;5.13;3.00;;;27.80;99.90;;;;;;5086855;28;20199;-80